sensor_id;sensor_type;location;lat;lon;timestamp;P1;durP1;ratioP1;P2;durP2;ratioP2
9773;SDS011;4926;42.670;23.316;2023-11-19T00:01:04;3.20;;;2.90;;
9773;SDS011;4926;42.670;23.316;2023-11-19T00:03:31;3.05;;;2.75;;
9773;SDS011;4926;42.670;23.316;2023-11-19T00:06:01;2.90;;;2.60;;
9773;SDS011;4926;42.670;23.316;2023-11-19T00:08:29;3.05;;;2.75;;
9773;SDS011;4926;42.670;23.316;2023-11-19T00:10:57;2.95;;;2.67;;
9773;SDS011;4926;42.670;23.316;2023-11-19T00:13:32;3.00;;;2.70;;
9773;SDS011;4926;42.670;23.316;2023-11-19T00:16:01;3.30;;;3.00;;
9773;SDS011;4926;42.670;23.316;2023-11-19T00:18:29;2.72;;;2.53;;
9773;SDS011;4926;42.670;23.316;2023-11-19T00:20:56;3.03;;;2.65;;
9773;SDS011;4926;42.670;23.316;2023-11-19T00:23:23;3.20;;;2.90;;
9773;SDS011;4926;42.670;23.316;2023-11-19T00:25:49;3.03;;;2.72;;
9773;SDS011;4926;42.670;23.316;2023-11-19T00:28:18;4.43;;;2.88;;
9773;SDS011;4926;42.670;23.316;2023-11-19T00:30:45;3.33;;;3.03;;
9773;SDS011;4926;42.670;23.316;2023-11-19T00:33:11;2.75;;;2.55;;
9773;SDS011;4926;42.670;23.316;2023-11-19T00:35:38;2.95;;;2.50;;
9773;SDS011;4926;42.670;23.316;2023-11-19T00:38:05;3.20;;;2.45;;
9773;SDS011;4926;42.670;23.316;2023-11-19T00:40:33;3.63;;;3.05;;
9773;SDS011;4926;42.670;23.316;2023-11-19T00:43:00;3.30;;;3.00;;
9773;SDS011;4926;42.670;23.316;2023-11-19T00:45:29;3.08;;;2.63;;
9773;SDS011;4926;42.670;23.316;2023-11-19T00:47:55;2.25;;;2.05;;
9773;SDS011;4926;42.670;23.316;2023-11-19T00:50:24;3.35;;;3.05;;
9773;SDS011;4926;42.670;23.316;2023-11-19T00:52:51;3.45;;;3.15;;
9773;SDS011;4926;42.670;23.316;2023-11-19T00:55:20;3.33;;;3.03;;
9773;SDS011;4926;42.670;23.316;2023-11-19T00:57:47;2.78;;;2.50;;
9773;SDS011;4926;42.670;23.316;2023-11-19T01:00:14;3.60;;;2.95;;
9773;SDS011;4926;42.670;23.316;2023-11-19T01:02:45;3.25;;;2.80;;
9773;SDS011;4926;42.670;23.316;2023-11-19T01:05:11;3.22;;;2.92;;
9773;SDS011;4926;42.670;23.316;2023-11-19T01:07:40;2.60;;;2.40;;
9773;SDS011;4926;42.670;23.316;2023-11-19T01:10:07;3.63;;;2.65;;
9773;SDS011;4926;42.670;23.316;2023-11-19T01:12:35;3.10;;;2.80;;
9773;SDS011;4926;42.670;23.316;2023-11-19T01:15:03;2.10;;;2.00;;
9773;SDS011;4926;42.670;23.316;2023-11-19T01:17:30;2.97;;;2.50;;
9773;SDS011;4926;42.670;23.316;2023-11-19T01:19:59;2.80;;;2.45;;
9773;SDS011;4926;42.670;23.316;2023-11-19T01:22:34;2.70;;;2.33;;
9773;SDS011;4926;42.670;23.316;2023-11-19T01:25:01;3.30;;;2.70;;
9773;SDS011;4926;42.670;23.316;2023-11-19T01:27:30;2.88;;;2.65;;
9773;SDS011;4926;42.670;23.316;2023-11-19T01:30:03;2.42;;;2.22;;
9773;SDS011;4926;42.670;23.316;2023-11-19T01:32:31;3.00;;;2.80;;
9773;SDS011;4926;42.670;23.316;2023-11-19T01:35:01;2.60;;;2.40;;
9773;SDS011;4926;42.670;23.316;2023-11-19T01:37:29;3.38;;;2.78;;
9773;SDS011;4926;42.670;23.316;2023-11-19T01:39:58;2.75;;;2.55;;
9773;SDS011;4926;42.670;23.316;2023-11-19T01:42:25;4.45;;;2.83;;
9773;SDS011;4926;42.670;23.316;2023-11-19T01:44:59;4.28;;;3.00;;
9773;SDS011;4926;42.670;23.316;2023-11-19T01:47:27;3.10;;;2.80;;
9773;SDS011;4926;42.670;23.316;2023-11-19T01:49:56;3.13;;;2.80;;
9773;SDS011;4926;42.670;23.316;2023-11-19T01:52:27;2.90;;;2.60;;
9773;SDS011;4926;42.670;23.316;2023-11-19T01:54:55;2.90;;;2.60;;
9773;SDS011;4926;42.670;23.316;2023-11-19T01:57:23;3.25;;;2.40;;
9773;SDS011;4926;42.670;23.316;2023-11-19T01:59:52;2.75;;;2.53;;
9773;SDS011;4926;42.670;23.316;2023-11-19T02:02:22;3.42;;;2.60;;
9773;SDS011;4926;42.670;23.316;2023-11-19T02:04:50;3.10;;;2.80;;
9773;SDS011;4926;42.670;23.316;2023-11-19T02:07:18;3.20;;;2.50;;
9773;SDS011;4926;42.670;23.316;2023-11-19T02:09:52;3.13;;;2.45;;
9773;SDS011;4926;42.670;23.316;2023-11-19T02:12:18;3.05;;;2.50;;
9773;SDS011;4926;42.670;23.316;2023-11-19T02:14:46;2.60;;;2.40;;
9773;SDS011;4926;42.670;23.316;2023-11-19T02:17:24;3.40;;;2.33;;
9773;SDS011;4926;42.670;23.316;2023-11-19T02:19:52;2.65;;;2.45;;
9773;SDS011;4926;42.670;23.316;2023-11-19T02:22:19;2.72;;;2.42;;
9773;SDS011;4926;42.670;23.316;2023-11-19T02:24:47;2.50;;;2.30;;
9773;SDS011;4926;42.670;23.316;2023-11-19T02:27:20;2.55;;;2.35;;
9773;SDS011;4926;42.670;23.316;2023-11-19T02:29:56;2.97;;;2.60;;
9773;SDS011;4926;42.670;23.316;2023-11-19T02:32:23;2.88;;;2.17;;
9773;SDS011;4926;42.670;23.316;2023-11-19T02:34:53;2.58;;;2.38;;
9773;SDS011;4926;42.670;23.316;2023-11-19T02:37:20;3.28;;;2.63;;
9773;SDS011;4926;42.670;23.316;2023-11-19T02:39:47;2.70;;;2.50;;
9773;SDS011;4926;42.670;23.316;2023-11-19T02:42:17;3.20;;;2.65;;
9773;SDS011;4926;42.670;23.316;2023-11-19T02:44:44;2.80;;;2.60;;
9773;SDS011;4926;42.670;23.316;2023-11-19T02:47:15;2.80;;;2.50;;
9773;SDS011;4926;42.670;23.316;2023-11-19T02:49:45;4.07;;;3.10;;
9773;SDS011;4926;42.670;23.316;2023-11-19T02:52:13;3.70;;;3.20;;
9773;SDS011;4926;42.670;23.316;2023-11-19T02:54:40;2.85;;;2.55;;
9773;SDS011;4926;42.670;23.316;2023-11-19T02:57:07;3.70;;;2.72;;
9773;SDS011;4926;42.670;23.316;2023-11-19T02:59:38;2.63;;;2.40;;
9773;SDS011;4926;42.670;23.316;2023-11-19T03:02:08;2.88;;;2.50;;
9773;SDS011;4926;42.670;23.316;2023-11-19T03:04:38;3.25;;;2.95;;
9773;SDS011;4926;42.670;23.316;2023-11-19T03:07:05;3.00;;;2.70;;
9773;SDS011;4926;42.670;23.316;2023-11-19T03:09:37;2.13;;;2.00;;
9773;SDS011;4926;42.670;23.316;2023-11-19T03:12:06;2.95;;;2.47;;
9773;SDS011;4926;42.670;23.316;2023-11-19T03:14:36;2.88;;;2.42;;
9773;SDS011;4926;42.670;23.316;2023-11-19T03:17:03;2.55;;;2.30;;
9773;SDS011;4926;42.670;23.316;2023-11-19T03:19:30;2.88;;;2.60;;
9773;SDS011;4926;42.670;23.316;2023-11-19T03:21:58;2.90;;;2.60;;
9773;SDS011;4926;42.670;23.316;2023-11-19T03:24:25;2.70;;;2.50;;
9773;SDS011;4926;42.670;23.316;2023-11-19T03:26:52;2.90;;;2.60;;
9773;SDS011;4926;42.670;23.316;2023-11-19T03:29:22;4.28;;;2.60;;
9773;SDS011;4926;42.670;23.316;2023-11-19T03:31:49;2.63;;;2.40;;
9773;SDS011;4926;42.670;23.316;2023-11-19T03:34:16;2.80;;;2.50;;
9773;SDS011;4926;42.670;23.316;2023-11-19T03:36:43;2.97;;;2.67;;
9773;SDS011;4926;42.670;23.316;2023-11-19T03:39:12;2.92;;;2.63;;
9773;SDS011;4926;42.670;23.316;2023-11-19T03:41:39;3.08;;;2.78;;
9773;SDS011;4926;42.670;23.316;2023-11-19T03:44:05;2.40;;;2.17;;
9773;SDS011;4926;42.670;23.316;2023-11-19T03:46:32;5.40;;;2.63;;
9773;SDS011;4926;42.670;23.316;2023-11-19T03:49:00;3.10;;;2.65;;
9773;SDS011;4926;42.670;23.316;2023-11-19T03:51:27;2.70;;;2.50;;
9773;SDS011;4926;42.670;23.316;2023-11-19T03:53:54;3.55;;;2.83;;
9773;SDS011;4926;42.670;23.316;2023-11-19T03:56:23;2.97;;;2.67;;
9773;SDS011;4926;42.670;23.316;2023-11-19T03:58:50;3.45;;;2.83;;
9773;SDS011;4926;42.670;23.316;2023-11-19T04:01:17;2.17;;;1.98;;
9773;SDS011;4926;42.670;23.316;2023-11-19T04:03:45;3.40;;;2.70;;
9773;SDS011;4926;42.670;23.316;2023-11-19T04:06:12;4.35;;;3.45;;
9773;SDS011;4926;42.670;23.316;2023-11-19T04:08:39;2.90;;;2.60;;
9773;SDS011;4926;42.670;23.316;2023-11-19T04:11:06;2.75;;;2.30;;
9773;SDS011;4926;42.670;23.316;2023-11-19T04:13:38;4.43;;;2.90;;
9773;SDS011;4926;42.670;23.316;2023-11-19T04:16:07;3.90;;;2.42;;
9773;SDS011;4926;42.670;23.316;2023-11-19T04:18:34;2.45;;;2.25;;
9773;SDS011;4926;42.670;23.316;2023-11-19T04:21:06;3.38;;;2.70;;
9773;SDS011;4926;42.670;23.316;2023-11-19T04:23:33;2.88;;;2.63;;
9773;SDS011;4926;42.670;23.316;2023-11-19T04:26:01;2.90;;;2.70;;
9773;SDS011;4926;42.670;23.316;2023-11-19T04:28:32;3.10;;;2.80;;
9773;SDS011;4926;42.670;23.316;2023-11-19T04:31:00;3.00;;;2.53;;
9773;SDS011;4926;42.670;23.316;2023-11-19T04:33:28;2.88;;;2.65;;
9773;SDS011;4926;42.670;23.316;2023-11-19T04:35:55;3.13;;;2.70;;
9773;SDS011;4926;42.670;23.316;2023-11-19T04:38:22;3.00;;;2.70;;
9773;SDS011;4926;42.670;23.316;2023-11-19T04:40:51;3.17;;;2.88;;
9773;SDS011;4926;42.670;23.316;2023-11-19T04:43:18;3.10;;;2.65;;
9773;SDS011;4926;42.670;23.316;2023-11-19T04:45:45;3.38;;;2.50;;
9773;SDS011;4926;42.670;23.316;2023-11-19T04:48:17;3.63;;;2.67;;
9773;SDS011;4926;42.670;23.316;2023-11-19T04:50:44;3.20;;;2.78;;
9773;SDS011;4926;42.670;23.316;2023-11-19T04:53:16;3.13;;;2.83;;
9773;SDS011;4926;42.670;23.316;2023-11-19T04:55:52;3.22;;;2.80;;
9773;SDS011;4926;42.670;23.316;2023-11-19T04:58:19;3.42;;;2.80;;
9773;SDS011;4926;42.670;23.316;2023-11-19T05:00:45;3.05;;;2.85;;
9773;SDS011;4926;42.670;23.316;2023-11-19T05:03:15;3.15;;;2.60;;
9773;SDS011;4926;42.670;23.316;2023-11-19T05:05:46;3.13;;;2.83;;
9773;SDS011;4926;42.670;23.316;2023-11-19T05:08:14;2.90;;;2.60;;
9773;SDS011;4926;42.670;23.316;2023-11-19T05:10:40;2.92;;;2.65;;
9773;SDS011;4926;42.670;23.316;2023-11-19T05:13:07;3.20;;;2.90;;
9773;SDS011;4926;42.670;23.316;2023-11-19T05:15:35;3.20;;;2.90;;
9773;SDS011;4926;42.670;23.316;2023-11-19T05:18:03;3.47;;;2.65;;
9773;SDS011;4926;42.670;23.316;2023-11-19T05:20:31;3.42;;;3.10;;
9773;SDS011;4926;42.670;23.316;2023-11-19T05:23:01;3.15;;;2.85;;
9773;SDS011;4926;42.670;23.316;2023-11-19T05:25:28;3.95;;;3.20;;
9773;SDS011;4926;42.670;23.316;2023-11-19T05:27:55;2.90;;;2.50;;
9773;SDS011;4926;42.670;23.316;2023-11-19T05:30:22;2.95;;;2.63;;
9773;SDS011;4926;42.670;23.316;2023-11-19T05:32:51;4.90;;;2.92;;
9773;SDS011;4926;42.670;23.316;2023-11-19T05:35:18;2.58;;;2.38;;
9773;SDS011;4926;42.670;23.316;2023-11-19T05:37:46;2.72;;;2.53;;
9773;SDS011;4926;42.670;23.316;2023-11-19T05:40:16;2.95;;;2.75;;
9773;SDS011;4926;42.670;23.316;2023-11-19T05:42:44;3.25;;;2.70;;
9773;SDS011;4926;42.670;23.316;2023-11-19T05:45:11;3.08;;;2.70;;
9773;SDS011;4926;42.670;23.316;2023-11-19T05:47:43;3.83;;;3.15;;
9773;SDS011;4926;42.670;23.316;2023-11-19T05:50:12;3.33;;;2.90;;
9773;SDS011;4926;42.670;23.316;2023-11-19T05:52:39;3.42;;;2.67;;
9773;SDS011;4926;42.670;23.316;2023-11-19T05:55:09;2.97;;;2.67;;
9773;SDS011;4926;42.670;23.316;2023-11-19T05:57:37;4.32;;;2.70;;
9773;SDS011;4926;42.670;23.316;2023-11-19T06:00:06;3.33;;;3.03;;
9773;SDS011;4926;42.670;23.316;2023-11-19T06:02:35;2.72;;;2.47;;
9773;SDS011;4926;42.670;23.316;2023-11-19T06:05:03;3.10;;;2.80;;
9773;SDS011;4926;42.670;23.316;2023-11-19T06:07:35;3.25;;;2.92;;
9773;SDS011;4926;42.670;23.316;2023-11-19T06:10:04;5.63;;;3.03;;
9773;SDS011;4926;42.670;23.316;2023-11-19T06:12:34;3.58;;;3.25;;
9773;SDS011;4926;42.670;23.316;2023-11-19T06:15:07;4.18;;;3.67;;
9773;SDS011;4926;42.670;23.316;2023-11-19T06:17:35;3.72;;;2.67;;
9773;SDS011;4926;42.670;23.316;2023-11-19T06:20:01;3.85;;;2.85;;
9773;SDS011;4926;42.670;23.316;2023-11-19T06:22:30;3.80;;;3.15;;
9773;SDS011;4926;42.670;23.316;2023-11-19T06:24:57;3.47;;;2.92;;
9773;SDS011;4926;42.670;23.316;2023-11-19T06:27:25;3.50;;;3.20;;
9773;SDS011;4926;42.670;23.316;2023-11-19T06:29:52;3.67;;;3.10;;
9773;SDS011;4926;42.670;23.316;2023-11-19T06:32:20;2.75;;;2.38;;
9773;SDS011;4926;42.670;23.316;2023-11-19T06:34:47;3.53;;;3.22;;
9773;SDS011;4926;42.670;23.316;2023-11-19T06:37:14;4.20;;;3.40;;
9773;SDS011;4926;42.670;23.316;2023-11-19T06:39:51;3.70;;;3.30;;
9773;SDS011;4926;42.670;23.316;2023-11-19T06:42:17;4.10;;;3.65;;
9773;SDS011;4926;42.670;23.316;2023-11-19T06:44:45;3.50;;;3.20;;
9773;SDS011;4926;42.670;23.316;2023-11-19T06:47:16;3.28;;;2.80;;
9773;SDS011;4926;42.670;23.316;2023-11-19T06:49:48;3.38;;;3.08;;
9773;SDS011;4926;42.670;23.316;2023-11-19T06:52:17;3.97;;;3.50;;
9773;SDS011;4926;42.670;23.316;2023-11-19T06:54:44;3.40;;;3.03;;
9773;SDS011;4926;42.670;23.316;2023-11-19T06:57:14;5.22;;;3.45;;
9773;SDS011;4926;42.670;23.316;2023-11-19T06:59:40;4.13;;;3.20;;
9773;SDS011;4926;42.670;23.316;2023-11-19T07:02:08;4.32;;;3.60;;
9773;SDS011;4926;42.670;23.316;2023-11-19T07:04:35;3.80;;;3.17;;
9773;SDS011;4926;42.670;23.316;2023-11-19T07:07:03;4.00;;;3.28;;
9773;SDS011;4926;42.670;23.316;2023-11-19T07:09:33;3.63;;;2.92;;
9773;SDS011;4926;42.670;23.316;2023-11-19T07:11:59;4.28;;;3.40;;
9773;SDS011;4926;42.670;23.316;2023-11-19T07:14:29;4.18;;;3.58;;
9773;SDS011;4926;42.670;23.316;2023-11-19T07:16:59;3.58;;;3.20;;
9773;SDS011;4926;42.670;23.316;2023-11-19T07:19:26;3.47;;;3.17;;
9773;SDS011;4926;42.670;23.316;2023-11-19T07:21:55;3.80;;;3.05;;
9773;SDS011;4926;42.670;23.316;2023-11-19T07:24:23;4.05;;;3.55;;
9773;SDS011;4926;42.670;23.316;2023-11-19T07:26:54;3.78;;;3.28;;
9773;SDS011;4926;42.670;23.316;2023-11-19T07:29:21;5.50;;;3.78;;
9773;SDS011;4926;42.670;23.316;2023-11-19T07:31:48;3.42;;;3.08;;
9773;SDS011;4926;42.670;23.316;2023-11-19T07:34:15;3.55;;;2.75;;
9773;SDS011;4926;42.670;23.316;2023-11-19T07:36:41;3.90;;;3.30;;
9773;SDS011;4926;42.670;23.316;2023-11-19T07:39:08;3.83;;;3.30;;
9773;SDS011;4926;42.670;23.316;2023-11-19T07:41:37;5.07;;;3.58;;
9773;SDS011;4926;42.670;23.316;2023-11-19T07:44:04;3.70;;;3.28;;
9773;SDS011;4926;42.670;23.316;2023-11-19T07:46:31;6.00;;;3.67;;
9773;SDS011;4926;42.670;23.316;2023-11-19T07:48:59;4.68;;;3.38;;
9773;SDS011;4926;42.670;23.316;2023-11-19T07:51:28;4.95;;;3.42;;
9773;SDS011;4926;42.670;23.316;2023-11-19T07:53:54;2.75;;;2.47;;
9773;SDS011;4926;42.670;23.316;2023-11-19T07:56:21;3.80;;;3.40;;
9773;SDS011;4926;42.670;23.316;2023-11-19T07:58:49;4.07;;;3.28;;
9773;SDS011;4926;42.670;23.316;2023-11-19T08:01:17;3.72;;;3.33;;
9773;SDS011;4926;42.670;23.316;2023-11-19T08:03:43;4.78;;;3.90;;
9773;SDS011;4926;42.670;23.316;2023-11-19T08:06:10;4.03;;;3.63;;
9773;SDS011;4926;42.670;23.316;2023-11-19T08:08:37;3.83;;;3.40;;
9773;SDS011;4926;42.670;23.316;2023-11-19T08:11:05;4.00;;;3.53;;
9773;SDS011;4926;42.670;23.316;2023-11-19T08:13:32;3.70;;;3.30;;
9773;SDS011;4926;42.670;23.316;2023-11-19T08:16:00;4.63;;;3.88;;
9773;SDS011;4926;42.670;23.316;2023-11-19T08:18:30;3.30;;;3.00;;
9773;SDS011;4926;42.670;23.316;2023-11-19T08:20:57;5.07;;;3.83;;
9773;SDS011;4926;42.670;23.316;2023-11-19T08:23:25;4.00;;;3.60;;
9773;SDS011;4926;42.670;23.316;2023-11-19T08:25:53;4.75;;;3.80;;
9773;SDS011;4926;42.670;23.316;2023-11-19T08:28:23;5.00;;;3.97;;
9773;SDS011;4926;42.670;23.316;2023-11-19T08:30:55;4.82;;;3.83;;
9773;SDS011;4926;42.670;23.316;2023-11-19T08:33:23;4.22;;;3.60;;
9773;SDS011;4926;42.670;23.316;2023-11-19T08:35:52;4.32;;;3.80;;
9773;SDS011;4926;42.670;23.316;2023-11-19T08:38:21;4.50;;;3.97;;
9773;SDS011;4926;42.670;23.316;2023-11-19T08:40:50;3.83;;;2.88;;
9773;SDS011;4926;42.670;23.316;2023-11-19T08:43:18;3.40;;;3.10;;
9773;SDS011;4926;42.670;23.316;2023-11-19T08:45:45;4.45;;;3.10;;
9773;SDS011;4926;42.670;23.316;2023-11-19T08:48:11;4.22;;;3.83;;
9773;SDS011;4926;42.670;23.316;2023-11-19T08:50:40;5.38;;;3.67;;
9773;SDS011;4926;42.670;23.316;2023-11-19T08:53:09;5.68;;;3.58;;
9773;SDS011;4926;42.670;23.316;2023-11-19T08:55:37;3.80;;;3.42;;
9773;SDS011;4926;42.670;23.316;2023-11-19T08:58:14;3.92;;;3.55;;
9773;SDS011;4926;42.670;23.316;2023-11-19T09:00:41;4.57;;;3.08;;
9773;SDS011;4926;42.670;23.316;2023-11-19T09:03:08;3.72;;;3.28;;
9773;SDS011;4926;42.670;23.316;2023-11-19T09:05:38;5.15;;;4.10;;
9773;SDS011;4926;42.670;23.316;2023-11-19T09:08:07;4.35;;;3.90;;
9773;SDS011;4926;42.670;23.316;2023-11-19T09:10:34;4.88;;;4.07;;
9773;SDS011;4926;42.670;23.316;2023-11-19T09:13:00;5.05;;;3.97;;
9773;SDS011;4926;42.670;23.316;2023-11-19T09:15:27;5.55;;;4.40;;
9773;SDS011;4926;42.670;23.316;2023-11-19T09:17:54;4.15;;;3.53;;
9773;SDS011;4926;42.670;23.316;2023-11-19T09:20:24;3.55;;;3.17;;
9773;SDS011;4926;42.670;23.316;2023-11-19T09:22:52;3.40;;;3.10;;
9773;SDS011;4926;42.670;23.316;2023-11-19T09:25:19;3.85;;;3.50;;
9773;SDS011;4926;42.670;23.316;2023-11-19T09:27:46;4.15;;;3.20;;
9773;SDS011;4926;42.670;23.316;2023-11-19T09:30:20;4.68;;;4.07;;
9773;SDS011;4926;42.670;23.316;2023-11-19T09:32:47;3.67;;;3.30;;
9773;SDS011;4926;42.670;23.316;2023-11-19T09:35:14;4.43;;;4.03;;
9773;SDS011;4926;42.670;23.316;2023-11-19T09:37:44;3.60;;;3.13;;
9773;SDS011;4926;42.670;23.316;2023-11-19T09:40:14;3.42;;;3.13;;
9773;SDS011;4926;42.670;23.316;2023-11-19T09:42:43;3.33;;;3.03;;
9773;SDS011;4926;42.670;23.316;2023-11-19T09:45:13;4.15;;;3.10;;
9773;SDS011;4926;42.670;23.316;2023-11-19T09:47:42;4.82;;;3.60;;
9773;SDS011;4926;42.670;23.316;2023-11-19T09:50:14;5.05;;;3.53;;
9773;SDS011;4926;42.670;23.316;2023-11-19T09:52:44;4.60;;;4.13;;
9773;SDS011;4926;42.670;23.316;2023-11-19T09:55:15;4.05;;;3.65;;
9773;SDS011;4926;42.670;23.316;2023-11-19T09:57:41;3.58;;;3.28;;
9773;SDS011;4926;42.670;23.316;2023-11-19T10:00:11;3.58;;;3.08;;
9773;SDS011;4926;42.670;23.316;2023-11-19T10:02:44;3.90;;;3.38;;
9773;SDS011;4926;42.670;23.316;2023-11-19T10:05:12;3.45;;;3.03;;
9773;SDS011;4926;42.670;23.316;2023-11-19T10:07:40;3.30;;;3.00;;
9773;SDS011;4926;42.670;23.316;2023-11-19T10:10:07;4.53;;;2.85;;
9773;SDS011;4926;42.670;23.316;2023-11-19T10:12:43;4.10;;;3.33;;
9773;SDS011;4926;42.670;23.316;2023-11-19T10:15:14;4.47;;;3.20;;
9773;SDS011;4926;42.670;23.316;2023-11-19T10:17:49;4.65;;;3.30;;
9773;SDS011;4926;42.670;23.316;2023-11-19T10:20:16;4.88;;;3.08;;
9773;SDS011;4926;42.670;23.316;2023-11-19T10:22:43;3.10;;;2.80;;
9773;SDS011;4926;42.670;23.316;2023-11-19T10:25:21;3.40;;;3.10;;
9773;SDS011;4926;42.670;23.316;2023-11-19T10:27:53;3.53;;;2.90;;
9773;SDS011;4926;42.670;23.316;2023-11-19T10:30:23;3.38;;;3.05;;
9773;SDS011;4926;42.670;23.316;2023-11-19T10:33:02;3.75;;;3.25;;
9773;SDS011;4926;42.670;23.316;2023-11-19T10:35:31;4.18;;;2.53;;
9773;SDS011;4926;42.670;23.316;2023-11-19T10:38:02;2.75;;;2.50;;
9773;SDS011;4926;42.670;23.316;2023-11-19T10:40:42;3.45;;;3.15;;
9773;SDS011;4926;42.670;23.316;2023-11-19T10:43:12;3.22;;;2.92;;
9773;SDS011;4926;42.670;23.316;2023-11-19T10:45:39;3.38;;;3.08;;
9773;SDS011;4926;42.670;23.316;2023-11-19T10:48:06;3.13;;;2.83;;
9773;SDS011;4926;42.670;23.316;2023-11-19T10:50:33;3.92;;;3.20;;
9773;SDS011;4926;42.670;23.316;2023-11-19T10:53:04;3.38;;;3.08;;
9773;SDS011;4926;42.670;23.316;2023-11-19T10:55:34;3.33;;;3.03;;
9773;SDS011;4926;42.670;23.316;2023-11-19T10:58:04;4.28;;;3.38;;
9773;SDS011;4926;42.670;23.316;2023-11-19T11:00:38;5.88;;;3.47;;
9773;SDS011;4926;42.670;23.316;2023-11-19T11:03:11;3.70;;;3.08;;
9773;SDS011;4926;42.670;23.316;2023-11-19T11:05:41;3.03;;;2.58;;
9773;SDS011;4926;42.670;23.316;2023-11-19T11:08:12;3.63;;;3.15;;
9773;SDS011;4926;42.670;23.316;2023-11-19T11:10:43;2.60;;;2.40;;
9773;SDS011;4926;42.670;23.316;2023-11-19T11:13:12;3.17;;;2.88;;
9773;SDS011;4926;42.670;23.316;2023-11-19T11:15:41;3.28;;;2.60;;
9773;SDS011;4926;42.670;23.316;2023-11-19T11:18:08;2.75;;;2.55;;
9773;SDS011;4926;42.670;23.316;2023-11-19T11:20:35;2.92;;;2.35;;
9773;SDS011;4926;42.670;23.316;2023-11-19T11:23:11;2.97;;;2.65;;
9773;SDS011;4926;42.670;23.316;2023-11-19T11:26:09;4.38;;;2.92;;
9773;SDS011;4926;42.670;23.316;2023-11-19T11:28:52;2.58;;;2.33;;
9773;SDS011;4926;42.670;23.316;2023-11-19T11:31:29;2.90;;;2.58;;
9773;SDS011;4926;42.670;23.316;2023-11-19T11:37:06;4.63;;;3.63;;
9773;SDS011;4926;42.670;23.316;2023-11-19T11:39:41;3.78;;;3.25;;
9773;SDS011;4926;42.670;23.316;2023-11-19T11:45:03;4.15;;;3.17;;
9773;SDS011;4926;42.670;23.316;2023-11-19T11:50:48;4.00;;;2.78;;
9773;SDS011;4926;42.670;23.316;2023-11-19T11:53:17;3.72;;;2.85;;
9773;SDS011;4926;42.670;23.316;2023-11-19T11:55:54;3.42;;;3.13;;
9773;SDS011;4926;42.670;23.316;2023-11-19T11:58:29;3.25;;;2.95;;
9773;SDS011;4926;42.670;23.316;2023-11-19T12:01:03;3.63;;;3.22;;
9773;SDS011;4926;42.670;23.316;2023-11-19T12:03:33;3.40;;;3.00;;
9773;SDS011;4926;42.670;23.316;2023-11-19T12:06:00;4.53;;;2.58;;
9773;SDS011;4926;42.670;23.316;2023-11-19T12:08:29;4.15;;;2.78;;
9773;SDS011;4926;42.670;23.316;2023-11-19T12:10:57;4.68;;;3.38;;
9773;SDS011;4926;42.670;23.316;2023-11-19T12:13:27;3.90;;;3.30;;
9773;SDS011;4926;42.670;23.316;2023-11-19T12:16:10;3.63;;;3.00;;
9773;SDS011;4926;42.670;23.316;2023-11-19T12:18:39;2.90;;;2.60;;
9773;SDS011;4926;42.670;23.316;2023-11-19T12:21:07;3.17;;;2.88;;
9773;SDS011;4926;42.670;23.316;2023-11-19T12:23:37;3.30;;;3.00;;
9773;SDS011;4926;42.670;23.316;2023-11-19T12:26:20;3.30;;;3.00;;
9773;SDS011;4926;42.670;23.316;2023-11-19T12:28:57;3.88;;;3.00;;
9773;SDS011;4926;42.670;23.316;2023-11-19T12:31:24;4.07;;;3.08;;
9773;SDS011;4926;42.670;23.316;2023-11-19T12:33:52;5.07;;;3.38;;
9773;SDS011;4926;42.670;23.316;2023-11-19T12:36:20;10.05;;;4.80;;
9773;SDS011;4926;42.670;23.316;2023-11-19T12:38:47;6.63;;;4.20;;
9773;SDS011;4926;42.670;23.316;2023-11-19T12:41:14;7.15;;;4.40;;
9773;SDS011;4926;42.670;23.316;2023-11-19T12:43:49;7.60;;;4.78;;
9773;SDS011;4926;42.670;23.316;2023-11-19T12:46:17;13.02;;;6.60;;
9773;SDS011;4926;42.670;23.316;2023-11-19T12:48:44;9.70;;;5.47;;
9773;SDS011;4926;42.670;23.316;2023-11-19T12:51:13;9.52;;;5.50;;
9773;SDS011;4926;42.670;23.316;2023-11-19T12:53:47;4.35;;;3.42;;
9773;SDS011;4926;42.670;23.316;2023-11-19T12:56:15;4.03;;;3.63;;
9773;SDS011;4926;42.670;23.316;2023-11-19T12:58:44;7.90;;;5.35;;
9773;SDS011;4926;42.670;23.316;2023-11-19T13:01:15;4.95;;;3.90;;
9773;SDS011;4926;42.670;23.316;2023-11-19T13:03:44;5.68;;;4.40;;
9773;SDS011;4926;42.670;23.316;2023-11-19T13:06:15;4.30;;;3.70;;
9773;SDS011;4926;42.670;23.316;2023-11-19T13:08:46;4.10;;;3.40;;
9773;SDS011;4926;42.670;23.316;2023-11-19T13:11:15;7.57;;;4.15;;
9773;SDS011;4926;42.670;23.316;2023-11-19T13:13:57;4.90;;;3.67;;
9773;SDS011;4926;42.670;23.316;2023-11-19T13:16:25;5.65;;;4.28;;
9773;SDS011;4926;42.670;23.316;2023-11-19T13:18:53;4.00;;;3.60;;
9773;SDS011;4926;42.670;23.316;2023-11-19T13:21:21;6.55;;;4.50;;
9773;SDS011;4926;42.670;23.316;2023-11-19T13:23:48;7.55;;;5.00;;
9773;SDS011;4926;42.670;23.316;2023-11-19T13:26:15;9.40;;;4.70;;
9773;SDS011;4926;42.670;23.316;2023-11-19T13:28:42;6.65;;;4.85;;
9773;SDS011;4926;42.670;23.316;2023-11-19T13:31:09;11.13;;;6.70;;
9773;SDS011;4926;42.670;23.316;2023-11-19T13:33:36;9.45;;;6.28;;
9773;SDS011;4926;42.670;23.316;2023-11-19T13:36:03;12.13;;;6.97;;
9773;SDS011;4926;42.670;23.316;2023-11-19T13:38:34;5.78;;;4.57;;
9773;SDS011;4926;42.670;23.316;2023-11-19T13:41:01;8.13;;;5.30;;
9773;SDS011;4926;42.670;23.316;2023-11-19T13:43:28;10.48;;;7.22;;
9773;SDS011;4926;42.670;23.316;2023-11-19T13:45:55;6.78;;;5.20;;
9773;SDS011;4926;42.670;23.316;2023-11-19T13:48:23;9.02;;;5.90;;
9773;SDS011;4926;42.670;23.316;2023-11-19T13:50:51;7.03;;;5.15;;
9773;SDS011;4926;42.670;23.316;2023-11-19T13:53:18;6.50;;;4.80;;
9773;SDS011;4926;42.670;23.316;2023-11-19T13:55:46;4.70;;;3.90;;
9773;SDS011;4926;42.670;23.316;2023-11-19T13:58:14;5.35;;;4.32;;
9773;SDS011;4926;42.670;23.316;2023-11-19T14:00:41;6.88;;;4.55;;
9773;SDS011;4926;42.670;23.316;2023-11-19T14:03:08;5.20;;;4.13;;
9773;SDS011;4926;42.670;23.316;2023-11-19T14:05:36;6.65;;;4.72;;
9773;SDS011;4926;42.670;23.316;2023-11-19T14:08:03;4.07;;;2.78;;
9773;SDS011;4926;42.670;23.316;2023-11-19T14:10:36;6.65;;;3.80;;
9773;SDS011;4926;42.670;23.316;2023-11-19T14:13:06;4.28;;;3.45;;
9773;SDS011;4926;42.670;23.316;2023-11-19T14:15:34;5.22;;;3.90;;
9773;SDS011;4926;42.670;23.316;2023-11-19T14:18:01;3.65;;;3.25;;
9773;SDS011;4926;42.670;23.316;2023-11-19T14:20:29;5.90;;;3.40;;
9773;SDS011;4926;42.670;23.316;2023-11-19T14:22:56;3.10;;;2.80;;
9773;SDS011;4926;42.670;23.316;2023-11-19T14:25:23;3.72;;;3.40;;
9773;SDS011;4926;42.670;23.316;2023-11-19T14:27:50;4.30;;;3.35;;
9773;SDS011;4926;42.670;23.316;2023-11-19T14:30:18;3.72;;;3.33;;
9773;SDS011;4926;42.670;23.316;2023-11-19T14:32:46;6.05;;;3.67;;
9773;SDS011;4926;42.670;23.316;2023-11-19T14:35:13;3.88;;;3.40;;
9773;SDS011;4926;42.670;23.316;2023-11-19T14:37:40;4.53;;;3.40;;
9773;SDS011;4926;42.670;23.316;2023-11-19T14:40:07;4.10;;;3.67;;
9773;SDS011;4926;42.670;23.316;2023-11-19T14:42:36;4.22;;;3.50;;
9773;SDS011;4926;42.670;23.316;2023-11-19T14:45:04;4.85;;;3.95;;
9773;SDS011;4926;42.670;23.316;2023-11-19T14:47:33;4.60;;;3.60;;
9773;SDS011;4926;42.670;23.316;2023-11-19T14:50:00;3.92;;;3.50;;
9773;SDS011;4926;42.670;23.316;2023-11-19T14:52:30;4.90;;;4.05;;
9773;SDS011;4926;42.670;23.316;2023-11-19T14:54:57;4.90;;;3.95;;
9773;SDS011;4926;42.670;23.316;2023-11-19T14:57:27;5.10;;;4.25;;
9773;SDS011;4926;42.670;23.316;2023-11-19T14:59:54;4.95;;;4.35;;
9773;SDS011;4926;42.670;23.316;2023-11-19T15:02:21;6.05;;;4.45;;
9773;SDS011;4926;42.670;23.316;2023-11-19T15:04:49;5.93;;;4.28;;
9773;SDS011;4926;42.670;23.316;2023-11-19T15:07:22;5.63;;;4.47;;
9773;SDS011;4926;42.670;23.316;2023-11-19T15:09:49;8.65;;;5.05;;
9773;SDS011;4926;42.670;23.316;2023-11-19T15:12:16;6.65;;;4.88;;
9773;SDS011;4926;42.670;23.316;2023-11-19T15:14:43;6.75;;;5.13;;
9773;SDS011;4926;42.670;23.316;2023-11-19T15:17:09;6.75;;;4.57;;
9773;SDS011;4926;42.670;23.316;2023-11-19T15:19:36;5.85;;;4.53;;